Latest Weather Observations for Hobart Airport

IDT60901

Issued at 2:01 pm EDT Sunday 1 March 2015 (issued every 10 minutes, with the page automatically refreshed every 10 minutes)

About weather observations | Map of Hobart area stations | Latest observations for Hobart area | Other Formats
Station Details ID: 094008 Name: HOBART AIRPORT Lat: -42.83 Lon: 147.50 Height: 4.0 m
Data from the previous 72 hours. | See also: Recent months at Hobart Airport
Date/Time
EDT
Tmp

°C
App
Tmp
°C
Dew
Point
°C
Rel
Hum
%
Delta-T

°C
Wind Press
QNH
hPa
Press
MSL
hPa
Rain
since
9 am
mm
Dir
 
Spd
km/h
Gust
km/h
Spd
kts
Gust
kts
01/01:00pm 18.3 13.5 5.6 43 6.2 WSW 20 37 11 20 1009.2 1009.1 0.0
01/12:30pm 17.7 12.8 5.3 44 6.0 SW 20 32 11 17 1009.1 1009.0 0.0
01/12:00pm 17.8 12.7 6.0 46 5.8 SW 22 35 12 19 1008.8 1008.7 0.0
01/11:30am 17.1 12.1 6.3 49 5.3 SW 22 30 12 16 1008.5 1008.4 0.0
01/11:00am 16.5 10.6 5.8 49 5.2 SW 26 37 14 20 1008.0 1007.9 0.0
01/10:30am 16.5 11.0 6.0 50 5.1 SW 24 37 13 20 1007.5 1007.4 0.0
01/09:30am 16.2 11.7 6.9 54 4.6 WSW 20 32 11 17 1006.3 1006.2 0.0
01/09:00am 16.2 10.9 6.9 54 4.6 WSW 24 41 13 22 1005.8 1005.7 1.2
01/08:30am 15.1 11.0 7.9 62 3.6 WSW 19 30 10 16 1005.0 1004.9 1.2
01/08:00am 13.6 10.9 8.9 73 2.4 W 13 15 7 8 1004.5 1004.4 1.2
01/07:30am 14.0 9.2 8.9 71 2.6 WNW 24 30 13 16 1003.6 1003.5 1.2
01/07:00am 14.7 10.9 7.7 63 3.5 W 17 24 9 13 1002.8 1002.7 1.2
01/06:30am 14.7 10.4 7.2 61 3.7 W 19 26 10 14 1002.3 1002.2 1.2
01/05:00am 15.9 11.2 6.0 52 4.8 WNW 20 30 11 16 1001.2 1001.1 1.2
01/04:30am 16.3 10.0 5.8 50 5.1 WNW 28 39 15 21 1000.9 1000.8 1.2
01/04:23am 16.5 10.2 5.8 49 5.2 W 28 48 15 26 1000.8 1000.7 1.2
01/03:30am 16.3 12.0 7.1 54 4.6 WNW 19 30 10 16 1000.5 1000.4 1.2
01/03:00am 16.6 13.5 7.2 54 4.7 WNW 13 19 7 10 1000.4 1000.3 1.2
01/02:30am 16.7 12.5 7.6 55 4.6 WNW 19 26 10 14 1000.0 999.9 1.2
01/02:00am 17.0 12.8 7.5 53 4.8 WNW 19 32 10 17 999.5 999.4 1.2
01/01:30am 17.7 12.9 8.9 56 4.6 NW 24 35 13 19 999.3 999.2 1.2
01/12:30am 18.4 13.5 11.3 63 3.9 WNW 28 35 15 19 998.9 998.8 1.2
 
Date/Time
EDT
Tmp

°C
App
Tmp
°C
Dew
Point
°C
Rel
Hum
%
Delta-T

°C
Wind Press
QNH
hPa
Press
MSL
hPa
Rain
since
9 am
mm
Dir
 
Spd
km/h
Gust
km/h
Spd
kts
Gust
kts
28/11:30pm 19.3 16.8 12.4 64 3.9 NNW 17 24 9 13 998.4 998.3 1.2
28/11:00pm 19.7 17.3 12.6 63 4.0 NNW 17 20 9 11 998.4 998.3 1.2
28/10:30pm 21.1 17.9 11.4 54 5.4 NNW 19 32 10 17 998.6 998.5 1.2
28/10:00pm 20.2 18.0 13.4 65 3.9 N 17 24 9 13 998.2 998.1 1.2
28/09:30pm 20.4 19.0 13.5 64 4.0 N 13 22 7 12 997.6 997.5 1.2
28/09:00pm 20.4 19.2 14.1 67 3.7 N 13 19 7 10 997.1 997.1 1.2
28/08:30pm 22.0 18.3 12.8 56 5.3 NW 24 32 13 17 996.9 996.9 1.2
28/08:00pm 22.3 20.6 12.5 53 5.6 NW 13 24 7 13 996.7 996.7 1.2
28/07:30pm 21.6 20.9 13.3 59 4.8 N 9 13 5 7 995.9 995.9 1.2
28/07:00pm 22.4 21.0 13.5 57 5.2 NNE 13 20 7 11 996.4 996.4 1.2
28/06:30pm 21.8 20.4 13.3 58 4.9 N 13 19 7 10 996.8 996.8 1.2
28/05:30pm 21.7 17.8 12.2 54 5.4 N 24 33 13 18 997.0 997.0 1.2
28/05:00pm 21.8 20.1 12.3 54 5.4 NNW 13 26 7 14 997.6 997.5 1.2
28/04:30pm 20.9 18.8 11.2 54 5.4 NW 13 19 7 10 997.9 997.8 1.2
28/04:00pm 20.9 18.5 11.4 54 5.3 NW 15 19 8 10 998.3 998.2 1.2
28/03:30pm 20.6 17.9 11.7 56 4.9 WNW 17 19 9 10 999.3 999.2 1.2
28/03:00pm 20.4 18.1 11.8 57 4.8 NW 15 22 8 12 999.7 999.6 1.2
28/02:30pm 19.6 17.2 11.5 59 4.5 N 15 24 8 13 1000.4 1000.3 1.2
28/02:00pm 19.1 16.3 11.5 61 4.2 N 17 26 9 14 1001.0 1000.9 1.2
28/01:30pm 17.4 15.2 12.2 71 2.9 N 15 26 8 14 1001.5 1001.4 1.2
28/01:00pm 15.8 14.2 12.9 83 1.6 NNE 13 19 7 10 1001.9 1001.8 1.2
28/12:30pm 15.7 12.8 12.4 81 1.8 N 19 28 10 15 1002.4 1002.3 1.0
28/12:00pm 16.9 13.5 11.4 70 3.0 NNW 20 33 11 18 1002.7 1002.6 0.0
28/11:30am 18.8 14.9 9.4 54 5.0 N 20 30 11 16 1002.8 1002.7 0.0
28/11:00am 18.5 14.2 9.4 55 4.8 N 22 35 12 19 1003.0 1002.9 0.0
28/10:30am 19.0 15.5 10.1 56 4.8 N 19 32 10 17 1003.3 1003.2 0.0
28/10:00am 16.7 14.3 9.9 64 3.6 NNE 13 19 7 10 1003.8 1003.7 0.0
28/09:30am 16.2 14.0 9.5 64 3.5 NNE 11 15 6 8 1004.6 1004.5 0.0
28/09:00am 15.4 13.2 9.2 66 3.2 N 11 15 6 8 1005.3 1005.2 0.0
28/08:30am 14.6 12.6 8.5 67 3.1 NNE 9 11 5 6 1005.4 1005.3 0.0
28/08:00am 14.2 12.1 8.2 67 3.0 NNE 9 13 5 7 1005.8 1005.7 0.0
28/07:30am 13.8 10.9 8.0 68 2.9 NE 13 17 7 9 1005.9 1005.8 0.0
28/07:00am 13.3 10.7 7.8 69 2.7 NNE 11 15 6 8 1006.6 1006.5 0.0
28/06:30am 13.0 12.2 8.2 72 2.4 NW 2 6 1 3 1007.0 1006.9 0.0
28/06:00am 13.2 11.4 8.0 71 2.6 NNE 7 9 4 5 1007.2 1007.1 0.0
28/05:30am 13.2 12.7 7.7 69 2.7 CALM 0 4 0 2 1007.5 1007.4 0.0
28/05:00am 13.4 12.8 7.5 67 2.9 CALM 0 0 0 0 1007.9 1007.8 0.0
28/04:30am 13.1 11.5 8.1 71 2.5 NW 6 7 3 4 1008.3 1008.2 0.0
28/04:00am 12.9 12.4 7.8 71 2.5 CALM 0 0 0 0 1008.6 1008.5 0.0
28/03:30am 12.9 12.2 7.1 68 2.8 CALM 0 0 0 0 1009.3 1009.2 0.0
28/03:00am 13.0 11.0 6.3 64 3.2 NNE 6 9 3 5 1009.5 1009.4 0.0
28/02:30am 12.8 10.8 6.3 64 3.1 SSW 6 7 3 4 1009.6 1009.5 0.0
28/02:00am 13.1 10.2 6.7 65 3.1 SSW 11 13 6 7 1010.0 1009.9 0.0
28/01:30am 13.1 10.7 6.9 66 3.0 SW 9 11 5 6 1010.4 1010.3 0.0
28/01:00am 13.5 11.0 6.7 63 3.3 SW 9 11 5 6 1010.6 1010.5 0.0
28/12:30am 13.5 10.3 6.7 63 3.3 SSW 13 17 7 9 1010.8 1010.7 0.0
28/12:00am 13.7 10.8 6.7 62 3.4 SSW 11 15 6 8 1011.1 1011.0 0.0
 
Date/Time
EDT
Tmp

°C
App
Tmp
°C
Dew
Point
°C
Rel
Hum
%
Delta-T

°C
Wind Press
QNH
hPa
Press
MSL
hPa
Rain
since
9 am
mm
Dir
 
Spd
km/h
Gust
km/h
Spd
kts
Gust
kts
27/11:30pm 13.7 10.5 6.9 63 3.3 SW 13 15 7 8 1011.3 1011.2 0.0
27/11:00pm 14.1 10.9 6.7 61 3.6 SSW 13 17 7 9 1011.1 1011.0 0.0
27/10:30pm 14.1 10.9 6.7 61 3.6 SSW 13 17 7 9 1011.3 1011.2 0.0
27/10:00pm 14.2 10.1 6.3 59 3.8 S 17 22 9 12 1011.3 1011.2 0.0
27/09:30pm 14.2 9.9 6.8 61 3.6 S 19 28 10 15 1011.1 1011.0 0.0
27/09:00pm 14.6 9.3 6.8 59 3.8 S 24 32 13 17 1010.9 1010.8 0.0
27/08:30pm 14.7 9.5 7.2 61 3.7 S 24 33 13 18 1010.7 1010.6 0.0
27/08:00pm 14.7 9.9 7.4 61 3.6 S 22 32 12 17 1010.6 1010.5 0.0
27/07:30pm 14.8 9.2 7.3 61 3.7 S 26 32 14 17 1010.1 1010.0 0.0
27/07:00pm 15.2 10.5 7.8 61 3.7 SSW 22 33 12 18 1010.0 1009.9 0.0
27/06:30pm 15.4 10.1 8.3 62 3.6 S 26 39 14 21 1009.9 1009.8 0.0
27/06:00pm 15.8 10.6 8.8 63 3.6 SSW 26 37 14 20 1009.9 1009.8 0.0
27/05:30pm 16.3 10.4 10.5 68 3.1 S 32 43 17 23 1009.5 1009.4 0.0
27/05:00pm 17.7 14.9 13.1 74 2.6 SSE 20 28 11 15 1008.7 1008.6 0.0
27/04:30pm 17.5 14.7 12.7 73 2.7 SE 19 26 10 14 1008.4 1008.3 0.0
27/04:00pm 17.5 15.1 12.7 73 2.7 SSE 17 22 9 12 1008.8 1008.7 0.0
27/03:30pm 17.6 14.9 11.8 69 3.2 SE 17 24 9 13 1009.0 1008.9 0.0
27/03:00pm 17.6 15.1 10.9 65 3.6 SE 15 22 8 12 1009.0 1008.9 0.0
27/02:30pm 17.4 14.9 12.3 72 2.8 SE 17 20 9 11 1008.9 1008.8 0.0
27/02:00pm 17.4 14.6 11.3 67 3.3 SE 17 20 9 11 1009.0 1008.9 0.0
27/01:30pm 17.7 15.1 10.6 63 3.8 SSE 15 20 8 11 1009.3 1009.2 0.0
27/01:00pm 16.9 13.8 10.3 65 3.5 SSE 17 22 9 12 1009.8 1009.7 0.0
27/12:30pm 17.6 15.6 10.1 61 4.0 SSE 11 19 6 10 1009.5 1009.4 0.0
27/12:00pm 16.8 14.7 9.8 63 3.7 SE 11 15 6 8 1009.8 1009.7 0.0
27/11:30am 16.4 14.6 9.5 63 3.6 ENE 9 13 5 7 1010.3 1010.2 0.0
27/11:00am 17.0 15.2 9.3 60 4.0 NNE 9 13 5 7 1010.5 1010.4 0.0
27/10:30am 16.2 14.7 9.0 62 3.7 NE 7 11 4 6 1010.9 1010.8 0.0
27/10:00am 15.5 14.1 8.9 65 3.4 NW 6 11 3 6 1011.2 1011.1 0.0
27/09:30am 15.4 14.1 9.2 66 3.2 NNW 6 9 3 5 1011.4 1011.3 0.0
27/09:00am 14.9 14.4 9.3 69 2.9 ESE 2 7 1 4 1010.8 1010.7 2.8
27/08:30am 14.4 13.0 8.9 69 2.8 ESE 6 9 3 5 1010.6 1010.5 2.8
27/08:00am 13.7 13.4 8.7 72 2.5 CALM 0 0 0 0 1010.9 1010.8 2.8
27/07:30am 13.2 12.7 7.9 70 2.6 CALM 0 2 0 1 1011.5 1011.4 2.8
27/07:00am 13.2 11.9 7.5 68 2.8 SSW 4 7 2 4 1011.4 1011.3 2.8
27/06:30am 12.8 11.1 7.7 71 2.5 S 6 9 3 5 1010.9 1010.8 2.8
27/06:00am 13.1 12.5 7.6 69 2.7 CALM 0 0 0 0 1010.9 1010.8 2.8
27/05:30am 12.9 12.4 8.0 72 2.4 CALM 0 0 0 0 1010.7 1010.6 2.8
27/05:00am 13.2 12.6 7.3 67 2.9 CALM 0 0 0 0 1010.5 1010.4 2.8
27/04:30am 13.5 11.6 7.4 66 3.0 NW 7 9 4 5 1010.8 1010.7 2.8
27/04:00am 13.5 11.1 6.9 64 3.2 NNE 9 13 5 7 1010.8 1010.7 2.8
27/03:30am 13.0 11.7 7.7 70 2.6 N 4 7 2 4 1011.1 1011.0 2.8
27/03:00am 13.1 12.4 6.9 66 3.0 CALM 0 4 0 2 1011.4 1011.3 2.8
27/02:30am 13.2 11.3 6.8 65 3.1 W 6 7 3 4 1011.5 1011.4 2.8
27/02:00am 13.3 12.0 6.2 62 3.4 WSW 2 6 1 3 1011.8 1011.7 2.8
27/01:30am 13.7 11.5 5.4 57 3.9 S 6 9 3 5 1012.0 1011.9 2.8
27/01:00am 13.7 12.6 5.1 56 4.0 CALM 0 0 0 0 1012.2 1012.1 2.8
27/12:30am 13.7 12.7 5.4 57 3.9 CALM 0 0 0 0 1012.2 1012.1 2.8
27/12:00am 13.7 10.6 5.4 57 3.9 SSW 11 15 6 8 1012.3 1012.2 2.8
 
Date/Time
EDT
Tmp

°C
App
Tmp
°C
Dew
Point
°C
Rel
Hum
%
Delta-T

°C
Wind Press
QNH
hPa
Press
MSL
hPa
Rain
since
9 am
mm
Dir
 
Spd
km/h
Gust
km/h
Spd
kts
Gust
kts
26/11:30pm 13.8 10.3 5.5 57 3.9 SSW 13 17 7 9 1012.7 1012.6 2.8
26/11:00pm 13.8 9.9 5.3 56 4.0 SSW 15 19 8 10 1012.7 1012.6 2.8
26/10:30pm 13.8 9.9 5.3 56 4.0 SSW 15 20 8 11 1012.7 1012.6 2.8
26/10:00pm 14.0 10.4 5.0 54 4.2 SSW 13 19 7 10 1012.5 1012.4 2.8
26/09:30pm 14.1 9.8 5.1 54 4.2 S 17 22 9 12 1012.2 1012.1 2.8
26/09:00pm 14.0 9.4 5.8 57 3.9 S 19 26 10 14 1011.8 1011.7 2.8
26/08:30pm 14.1 9.5 5.7 57 4.0 S 19 26 10 14 1011.2 1011.1 2.8
26/08:00pm 14.2 9.0 5.5 56 4.1 S 22 30 12 16 1010.8 1010.7 2.8
26/07:30pm 14.3 9.2 5.9 57 4.0 S 22 32 12 17 1010.5 1010.4 2.8
26/07:00pm 14.4 9.9 6.8 60 3.7 SSE 20 28 11 15 1010.3 1010.2 2.8
26/06:30pm 14.5 9.7 7.4 62 3.5 S 22 33 12 18 1009.7 1009.6 2.8
26/06:00pm 14.1 8.8 8.5 69 2.8 SSE 26 33 14 18 1009.7 1009.6 2.8
26/05:30pm 14.6 9.7 8.5 67 3.1 S 24 33 13 18 1009.4 1009.3 2.8
26/05:00pm 14.5 8.9 8.8 68 2.9 SSE 28 35 15 19 1009.0 1008.9 2.8
26/04:52pm 14.3 8.9 9.4 72 2.5 SSE 28 35 15 19 1009.0 1008.9 2.8
26/04:30pm 13.9 9.6 10.9 82 1.6 SSE 24 32 13 17 1009.1 1009.0 2.8
26/04:00pm 13.8 8.3 11.9 88 1.0 SSE 32 41 17 22 1008.6 1008.5 1.6
26/03:34pm 13.9 8.4 11.7 86 1.2 S 32 41 17 22 1008.6 1008.5 1.2
26/03:30pm 13.9 8.2 11.9 88 1.1 S 33 41 18 22 1008.5 1008.4 1.2
26/03:11pm 14.5 8.9 13.2 92 0.7 S 35 44 19 24 1008.1 1008.0 1.2
26/03:00pm 14.5 9.9 13.4 93 0.6 S 30 43 16 23 1008.0 1007.9 1.2
26/02:51pm 14.9 9.7 12.9 88 1.1 S 32 41 17 22 1007.9 1007.8 0.2
26/02:30pm 15.1 8.1 12.4 84 1.5 S 41 54 22 29 1007.5 1007.4 0.0

Latest Capital City Observations: Canberra | Sydney | Melbourne | Brisbane | Adelaide | Perth | Hobart | Darwin

Other Formats:

Comma delimited format used in spreadsheet applications
http://www.bom.gov.au/fwo/IDT60901/IDT60901.94975.axf

JavaScript Object Notation format (JSON) in row-major order
http://www.bom.gov.au/fwo/IDT60901/IDT60901.94975.json